Lamberton, Minnesota
Current Conditions -  °F | °C
As of 7:52 PM on Wednesday 22 Oct 2014 (Local Time) from KTKC Reporting Station
Light Rain Light Rain  
Wind Chill: 60°   Ceiling: 8000
Heat Index: 60°   Visibility: 10mi
Dew Point: 58°   Wind: 9mph
Humidity: 93%   Direction: 210°SSW
Pressure: 29.98"   Gusts: NA
Location:  44.23°N, 95.26°W
Report Text: KTKC 230052Z AUTO 21008KT 10SM -RA SCT030 SCT050 OVC080 16/14 A2998 RMK AO2 P0004 T01550143
Loading
Personal Weather Stations






























Interactive Weather Map
Tropical Storm Tracking
New forecast layout! Learn more

10-Day Weather Forecast

Advertisements
Track Severe Weather on mobile